createdAt,value
2019-02-03T00:02:16.561Z,72.97
2019-02-03T00:04:47.066Z,72.60
2019-02-03T00:07:17.683Z,72.57
2019-02-03T00:09:48.131Z,72.60
2019-02-03T00:12:18.617Z,72.33
2019-02-03T00:14:49.059Z,69.27
2019-02-03T00:17:19.699Z,67.43
2019-02-03T00:19:50.143Z,70.10
2019-02-03T00:22:20.599Z,70.03
2019-02-03T00:24:51.071Z,67.67
2019-02-03T00:27:21.527Z,72.33
2019-02-03T00:29:52.978Z,70.63
2019-02-03T00:32:23.423Z,73.13
2019-02-03T00:34:54.195Z,76.50
2019-02-03T00:37:24.676Z,74.33
2019-02-03T00:39:55.170Z,72.10
2019-02-03T00:42:25.689Z,72.83
2019-02-03T00:44:56.239Z,72.50
2019-02-03T00:47:26.688Z,72.60
2019-02-03T00:49:57.441Z,73.10
2019-02-03T00:52:27.892Z,72.30
2019-02-03T00:54:58.390Z,71.53
2019-02-03T00:57:28.843Z,69.63
2019-02-03T00:59:59.623Z,70.63
2019-02-03T01:02:30.399Z,71.20
2019-02-03T01:05:01.115Z,69.67
2019-02-03T01:07:31.610Z,71.27
2019-02-03T01:10:02.060Z,69.03
2019-02-03T01:12:33.531Z,70.03
2019-02-03T01:15:04.910Z,67.73
2019-02-03T01:17:35.354Z,67.20
2019-02-03T01:20:08.006Z,67.90
2019-02-03T01:22:38.525Z,66.37
2019-02-03T01:25:10.891Z,65.67
2019-02-03T01:27:41.443Z,66.00
2019-02-03T01:30:15.155Z,67.13
2019-02-03T01:32:45.643Z,65.77
2019-02-03T01:35:16.481Z,64.17
2019-02-03T01:37:47.135Z,65.73
2019-02-03T01:40:18.484Z,62.27
2019-02-03T01:42:49.699Z,62.40
2019-02-03T01:45:21.057Z,63.43
2019-02-03T01:47:51.509Z,59.33
2019-02-03T01:50:21.952Z,59.30
2019-02-03T01:52:52.769Z,61.70
2019-02-03T01:55:24.725Z,62.10
2019-02-03T01:57:55.595Z,61.17
2019-02-03T02:00:27.982Z,58.50
2019-02-03T02:02:59.008Z,62.90
2019-02-03T02:05:29.486Z,61.70
2019-02-03T02:07:59.934Z,62.63
2019-02-03T02:10:30.546Z,61.63
2019-02-03T02:13:01.014Z,62.37
2019-02-03T02:15:32.263Z,59.53
2019-02-03T02:18:02.735Z,61.03
2019-02-03T02:20:33.183Z,61.87
2019-02-03T02:23:03.749Z,60.97
2019-02-03T02:25:35.162Z,60.73
2019-02-03T02:28:06.264Z,62.40
2019-02-03T02:30:36.755Z,61.20
2019-02-03T02:33:07.193Z,62.77
2019-02-03T02:35:37.687Z,59.73
2019-02-03T02:38:08.477Z,59.57
2019-02-03T02:40:39.327Z,61.47
2019-02-03T02:43:10.076Z,60.17
2019-02-03T02:45:40.832Z,61.03
2019-02-03T02:48:11.486Z,61.17
2019-02-03T02:50:43.962Z,63.17
2019-02-03T02:53:14.781Z,59.73
2019-02-03T02:55:45.625Z,61.87
2019-02-03T02:58:16.363Z,60.27
2019-02-03T03:00:46.880Z,60.70
2019-02-03T03:03:17.328Z,63.93
2019-02-03T03:05:48.534Z,58.33
2019-02-03T03:08:19.883Z,62.20
2019-02-03T03:10:50.435Z,61.17
2019-02-03T03:13:20.911Z,61.10
2019-02-03T03:15:51.354Z,60.97
2019-02-03T03:18:22.567Z,62.97
2019-02-03T03:20:53.909Z,63.07
2019-02-03T03:23:24.363Z,64.83
2019-02-03T03:25:55.775Z,63.30
2019-02-03T03:28:26.228Z,61.20
2019-02-03T03:30:56.908Z,62.43
2019-02-03T03:33:27.362Z,63.77
2019-02-03T03:35:57.807Z,64.40
2019-02-03T03:38:32.314Z,59.57
2019-02-03T03:41:00.892Z,59.27
2019-02-03T03:43:32.316Z,60.43
2019-02-03T03:46:06.332Z,58.13
2019-02-03T03:48:35.510Z,60.23
2019-02-03T03:51:06.575Z,61.17
2019-02-03T03:53:37.019Z,57.07
2019-02-03T03:56:08.283Z,60.20
2019-02-03T03:58:38.730Z,59.50
2019-02-03T04:01:09.337Z,56.63
2019-02-03T04:03:39.854Z,56.87
2019-02-03T04:06:10.306Z,59.60
2019-02-03T04:08:45.326Z,58.00
2019-02-03T04:11:13.442Z,56.17
2019-02-03T04:13:43.884Z,56.13
2019-02-03T04:16:15.429Z,56.17
2019-02-03T04:18:45.869Z,55.07
2019-02-03T04:21:16.364Z,55.90
2019-02-03T04:23:47.082Z,55.63
2019-02-03T04:26:18.453Z,56.20
2019-02-03T04:28:48.927Z,55.27
2019-02-03T04:31:19.372Z,55.67
2019-02-03T04:33:49.859Z,52.70
2019-02-03T04:36:20.460Z,55.73
2019-02-03T04:38:58.413Z,58.90
2019-02-03T04:41:23.390Z,57.43
2019-02-03T04:43:53.930Z,57.90
2019-02-03T04:46:24.735Z,56.07
2019-02-03T04:48:55.242Z,57.63
2019-02-03T04:51:25.690Z,58.43
2019-02-03T04:53:56.562Z,56.90
2019-02-03T04:56:27.000Z,58.33
2019-02-03T04:58:57.875Z,56.47
2019-02-03T05:01:29.023Z,57.27
2019-02-03T05:03:59.611Z,55.10
2019-02-03T05:06:30.128Z,57.00
2019-02-03T05:09:10.794Z,56.70
2019-02-03T05:11:33.928Z,57.27
2019-02-03T05:14:04.575Z,54.07
2019-02-03T05:16:35.038Z,54.37
2019-02-03T05:19:06.305Z,56.53
2019-02-03T05:21:37.478Z,56.57
2019-02-03T05:24:07.954Z,56.23
2019-02-03T05:26:38.389Z,56.90
2019-02-03T05:29:08.954Z,55.83
2019-02-03T05:31:39.864Z,54.17
2019-02-03T05:34:11.110Z,54.37
2019-02-03T05:36:41.578Z,56.87
2019-02-03T05:39:23.872Z,53.70
2019-02-03T05:41:44.217Z,54.03
2019-02-03T05:44:14.662Z,51.23
2019-02-03T05:46:45.483Z,49.70
2019-02-03T05:49:16.322Z,49.07
2019-02-03T05:51:46.766Z,49.13
2019-02-03T05:54:17.559Z,50.37
2019-02-03T05:56:47.998Z,48.27
2019-02-03T05:59:18.626Z,48.47
2019-02-03T06:01:49.328Z,49.57
2019-02-03T06:04:20.162Z,47.97
2019-02-03T06:06:50.751Z,44.27
2019-02-03T06:09:21.185Z,45.47
2019-02-03T06:11:52.366Z,46.77
2019-02-03T06:14:22.834Z,47.70
2019-02-03T06:16:53.633Z,45.20
2019-02-03T06:19:24.132Z,44.63
2019-02-03T06:21:54.567Z,43.63
2019-02-03T06:24:25.958Z,43.83
2019-02-03T06:26:56.439Z,44.57
2019-02-03T06:29:26.874Z,44.57
2019-02-03T06:31:57.341Z,43.60
2019-02-03T06:34:28.106Z,42.80
2019-02-03T06:36:59.147Z,43.20
2019-02-03T06:39:29.957Z,42.10
2019-02-03T06:42:00.845Z,42.13
2019-02-03T06:44:31.290Z,41.90
2019-02-03T06:47:07.030Z,42.20
2019-02-03T06:49:39.478Z,41.70
2019-02-03T06:52:09.897Z,43.27
2019-02-03T06:54:40.366Z,42.23
2019-02-03T06:57:11.159Z,43.53
2019-02-03T06:59:50.378Z,43.20
2019-02-03T07:02:14.655Z,41.77
2019-02-03T07:04:45.822Z,42.17
2019-02-03T07:07:16.291Z,43.23
2019-02-03T07:09:47.120Z,43.67
2019-02-03T07:12:17.604Z,44.37
2019-02-03T07:14:48.318Z,43.43
2019-02-03T07:17:19.132Z,41.73
2019-02-03T07:19:50.037Z,44.40
2019-02-03T07:22:20.473Z,44.10
2019-02-03T07:24:50.970Z,44.23
2019-02-03T07:27:21.414Z,46.60
2019-02-03T07:29:52.166Z,46.10
2019-02-03T07:32:22.629Z,45.87
2019-02-03T07:34:53.121Z,46.80
2019-02-03T07:37:24.004Z,43.63
2019-02-03T07:39:54.428Z,45.07
2019-02-03T07:42:25.166Z,44.10
2019-02-03T07:44:55.742Z,46.80
2019-02-03T07:47:26.914Z,44.83
2019-02-03T07:49:57.404Z,46.93
2019-02-03T07:52:28.182Z,46.83
2019-02-03T07:54:58.624Z,45.37
2019-02-03T07:57:29.094Z,47.07
2019-02-03T07:59:59.882Z,43.63
2019-02-03T08:02:30.660Z,44.23
2019-02-03T08:05:01.124Z,42.10
2019-02-03T08:07:31.851Z,42.90
2019-02-03T08:10:02.687Z,41.20
2019-02-03T08:12:33.999Z,40.33
2019-02-03T08:15:06.503Z,41.57
2019-02-03T08:17:36.942Z,39.87
2019-02-03T08:20:10.372Z,39.47
2019-02-03T08:22:40.836Z,39.80
2019-02-03T08:25:12.948Z,40.33
2019-02-03T08:27:43.443Z,38.63
2019-02-03T08:30:16.702Z,37.80
2019-02-03T08:32:47.138Z,37.63
2019-02-03T08:35:19.890Z,37.73
2019-02-03T08:37:50.142Z,35.73
2019-02-03T08:40:21.173Z,34.90
2019-02-03T08:42:51.976Z,35.40
2019-02-03T08:45:22.660Z,33.93
2019-02-03T08:47:53.103Z,33.53
2019-02-03T08:50:23.646Z,34.67
2019-02-03T08:52:54.232Z,34.33
2019-02-03T08:55:24.671Z,32.90
2019-02-03T08:57:57.717Z,32.00
2019-02-03T09:00:28.753Z,31.83
2019-02-03T09:02:59.288Z,29.33
2019-02-03T09:05:30.555Z,31.33
2019-02-03T09:08:01.020Z,32.57
2019-02-03T09:10:31.461Z,30.17
2019-02-03T09:13:01.951Z,31.57
2019-02-03T09:15:32.397Z,29.83
2019-02-03T09:18:03.569Z,30.63
2019-02-03T09:20:34.628Z,30.17
2019-02-03T09:23:06.765Z,30.13
2019-02-03T09:25:37.565Z,30.83
2019-02-03T09:28:08.881Z,31.80
2019-02-03T09:30:40.223Z,33.23
2019-02-03T09:33:11.691Z,30.23
2019-02-03T09:35:42.141Z,30.70
2019-02-03T09:38:13.698Z,31.27
2019-02-03T09:40:44.154Z,29.60
2019-02-03T09:43:15.007Z,30.53
2019-02-03T09:45:45.461Z,30.07
2019-02-03T09:48:16.300Z,29.63
2019-02-03T09:50:46.790Z,29.57
2019-02-03T09:53:17.234Z,31.30
2019-02-03T09:55:48.046Z,29.17
2019-02-03T09:58:18.516Z,29.87
2019-02-03T10:00:48.960Z,30.93
2019-02-03T10:03:19.442Z,30.60
2019-02-03T10:05:49.880Z,29.20
2019-02-03T10:08:20.821Z,30.13
2019-02-03T10:10:51.370Z,30.03
2019-02-03T10:13:21.821Z,29.60
2019-02-03T10:15:52.763Z,28.57
2019-02-03T10:18:23.636Z,28.97
2019-02-03T10:20:54.139Z,29.27
2019-02-03T10:23:24.588Z,27.13
2019-02-03T10:25:55.533Z,27.67
2019-02-03T10:28:26.090Z,25.70
2019-02-03T10:30:56.646Z,25.93
2019-02-03T10:33:27.494Z,26.87
2019-02-03T10:35:58.325Z,27.63
2019-02-03T10:38:29.540Z,26.97
2019-02-03T10:41:00.335Z,26.67
2019-02-03T10:43:30.789Z,27.30
2019-02-03T10:46:01.238Z,26.10
2019-02-03T10:48:32.222Z,26.37
2019-02-03T10:51:03.146Z,27.10
2019-02-03T10:53:33.571Z,27.57
2019-02-03T10:56:05.263Z,25.23
2019-02-03T10:58:36.104Z,26.33
2019-02-03T11:01:06.925Z,25.33
2019-02-03T11:03:37.442Z,25.97
2019-02-03T11:06:08.934Z,24.53
2019-02-03T11:08:39.565Z,24.47
2019-02-03T11:11:10.058Z,22.93
2019-02-03T11:13:41.177Z,22.83
2019-02-03T11:16:11.645Z,23.77
2019-02-03T11:18:42.918Z,22.80
2019-02-03T11:21:13.364Z,21.77
2019-02-03T11:23:43.816Z,22.73
2019-02-03T11:26:14.399Z,21.13
2019-02-03T11:28:44.934Z,19.97
2019-02-03T11:31:15.386Z,20.20
2019-02-03T11:33:45.890Z,20.57
2019-02-03T11:36:16.360Z,21.23
2019-02-03T11:38:47.165Z,20.90
2019-02-03T11:41:17.663Z,21.00
2019-02-03T11:43:48.102Z,20.23
2019-02-03T11:46:18.543Z,21.20
2019-02-03T11:48:49.053Z,20.30
2019-02-03T11:51:19.493Z,19.53
2019-02-03T11:53:49.951Z,19.53
2019-02-03T11:56:21.014Z,20.67
2019-02-03T11:58:51.462Z,20.10
2019-02-03T12:01:22.309Z,21.23
2019-02-03T12:03:52.798Z,20.97
2019-02-03T12:06:23.249Z,20.13
2019-02-03T12:08:53.690Z,22.30
2019-02-03T12:11:24.182Z,21.27
2019-02-03T12:13:55.141Z,21.80
2019-02-03T12:16:25.962Z,21.47
2019-02-03T12:18:57.363Z,22.47
2019-02-03T12:21:30.029Z,21.10
2019-02-03T12:24:00.341Z,22.57
2019-02-03T12:26:31.265Z,22.50
2019-02-03T12:29:01.709Z,22.37
2019-02-03T12:31:32.705Z,23.10
2019-02-03T12:34:03.197Z,22.87
2019-02-03T12:36:34.649Z,22.40
2019-02-03T12:39:08.494Z,21.33
2019-02-03T12:41:39.848Z,21.87
2019-02-03T12:44:10.456Z,21.87
2019-02-03T12:46:41.370Z,22.03
2019-02-03T12:49:12.214Z,21.23
2019-02-03T12:51:43.535Z,21.50
2019-02-03T12:54:14.450Z,21.33
2019-02-03T12:56:44.898Z,20.77
2019-02-03T12:59:15.345Z,20.63
2019-02-03T13:01:46.222Z,20.77
2019-02-03T13:04:16.708Z,19.07
2019-02-03T13:06:47.161Z,18.53
2019-02-03T13:09:19.966Z,20.07
2019-02-03T13:11:50.452Z,18.03
2019-02-03T13:14:21.318Z,18.87
2019-02-03T13:16:51.822Z,17.17
2019-02-03T13:19:23.584Z,16.30
2019-02-03T13:21:54.808Z,16.53
2019-02-03T13:24:25.317Z,15.87
2019-02-03T13:26:56.163Z,16.10
2019-02-03T13:29:26.891Z,16.43
2019-02-03T13:32:10.165Z,15.80
2019-02-03T13:34:30.439Z,14.87
2019-02-03T13:37:01.358Z,14.77
2019-02-03T13:39:31.877Z,14.53
2019-02-03T13:42:02.329Z,14.03
2019-02-03T13:44:33.539Z,14.00
2019-02-03T13:47:04.338Z,13.23
2019-02-03T13:49:35.129Z,13.20
2019-02-03T13:52:06.159Z,14.03
2019-02-03T13:54:37.139Z,14.40
2019-02-03T13:57:07.612Z,14.10
2019-02-03T13:59:38.074Z,14.50
2019-02-03T14:02:09.381Z,14.23
2019-02-03T14:04:39.842Z,14.00
2019-02-03T14:07:12.474Z,15.03
2019-02-03T14:09:42.960Z,14.53
2019-02-03T14:12:13.459Z,14.13
2019-02-03T14:14:43.918Z,13.37
2019-02-03T14:17:14.422Z,13.60
2019-02-03T14:19:44.878Z,14.97
2019-02-03T14:22:16.405Z,15.33
2019-02-03T14:24:49.647Z,13.73
2019-02-03T14:27:20.118Z,11.63
2019-02-03T14:29:50.588Z,11.30
2019-02-03T14:32:21.478Z,10.57
2019-02-03T14:34:51.928Z,10.00
2019-02-03T14:37:22.689Z,9.97
2019-02-03T14:39:53.201Z,8.57
2019-02-03T14:42:24.372Z,9.60
2019-02-03T14:44:55.924Z,9.10
2019-02-03T14:47:26.865Z,9.23
2019-02-03T14:49:58.016Z,8.67
2019-02-03T14:52:28.634Z,9.43
2019-02-03T14:54:59.505Z,8.83
2019-02-03T14:57:30.628Z,8.43
2019-02-03T15:00:01.086Z,11.50
2019-02-03T15:02:31.607Z,16.37
2019-02-03T15:05:02.044Z,8.87
2019-02-03T15:07:37.660Z,8.87
2019-02-03T15:10:05.902Z,7.93
2019-02-03T15:12:36.350Z,8.43
2019-02-03T15:15:09.262Z,7.87
2019-02-03T15:17:40.206Z,7.97
2019-02-03T15:20:13.308Z,8.17
2019-02-03T15:22:43.765Z,7.20
2019-02-03T15:25:15.237Z,8.13
2019-02-03T15:27:46.026Z,7.80
2019-02-03T15:30:22.665Z,7.57
2019-02-03T15:32:53.117Z,6.57
2019-02-03T15:35:24.007Z,6.60
2019-02-03T15:37:54.493Z,6.23
2019-02-03T15:40:24.959Z,5.90
2019-02-03T15:42:55.537Z,6.83
2019-02-03T15:45:26.211Z,6.97
2019-02-03T15:47:56.688Z,7.77
2019-02-03T15:50:28.856Z,6.53
2019-02-03T15:52:59.780Z,7.27
2019-02-03T15:55:31.580Z,7.03
2019-02-03T15:58:02.536Z,8.50
2019-02-03T16:00:35.376Z,7.67
2019-02-03T16:03:08.700Z,7.20
2019-02-03T16:05:39.977Z,7.60
2019-02-03T16:08:11.469Z,7.33
2019-02-03T16:10:42.978Z,7.20
2019-02-03T16:13:15.220Z,7.83
2019-02-03T16:15:46.175Z,7.67
2019-02-03T16:18:17.527Z,7.80
2019-02-03T16:20:48.150Z,8.20
2019-02-03T16:23:19.415Z,7.03
2019-02-03T16:25:49.865Z,7.70
2019-02-03T16:28:20.308Z,8.20
2019-02-03T16:30:51.577Z,7.60
2019-02-03T16:33:22.217Z,7.80
2019-02-03T16:35:52.659Z,7.67
2019-02-03T16:38:24.111Z,7.43
2019-02-03T16:40:55.605Z,7.33
2019-02-03T16:43:26.448Z,7.77
2019-02-03T16:45:59.271Z,7.70
2019-02-03T16:48:30.389Z,7.37
2019-02-03T16:51:00.854Z,7.70
2019-02-03T16:53:32.051Z,6.73
2019-02-03T16:56:02.998Z,8.77
2019-02-03T16:58:33.755Z,7.60
2019-02-03T17:01:05.159Z,8.07
2019-02-03T17:03:35.659Z,8.33
2019-02-03T17:06:06.449Z,7.47
2019-02-03T17:08:37.473Z,7.67
2019-02-03T17:11:08.737Z,9.60
2019-02-03T17:13:39.161Z,8.27
2019-02-03T17:16:10.013Z,8.37
2019-02-03T17:18:40.470Z,7.23
2019-02-03T17:21:11.589Z,8.27
2019-02-03T17:23:43.244Z,8.43
2019-02-03T17:26:13.994Z,8.17
2019-02-03T17:28:44.448Z,8.13
2019-02-03T17:31:14.945Z,7.67
2019-02-03T17:33:46.655Z,7.97
2019-02-03T17:36:17.700Z,8.13
2019-02-03T17:38:48.589Z,8.23
2019-02-03T17:41:19.042Z,7.53
2019-02-03T17:43:49.647Z,8.20
2019-02-03T17:46:20.135Z,8.20
2019-02-03T17:48:50.999Z,7.63
2019-02-03T17:51:23.541Z,7.00
2019-02-03T17:53:54.402Z,7.93
2019-02-03T17:56:25.169Z,6.90
2019-02-03T17:58:57.238Z,7.53
2019-02-03T18:01:27.812Z,7.70
2019-02-03T18:03:58.248Z,8.00
2019-02-03T18:06:28.699Z,7.00
2019-02-03T18:08:59.254Z,8.70
2019-02-03T18:11:29.818Z,6.93
2019-02-03T18:14:00.545Z,7.10
2019-02-03T18:16:31.025Z,6.67
2019-02-03T18:19:02.260Z,7.80
2019-02-03T18:21:32.792Z,6.80
2019-02-03T18:24:03.619Z,6.47
2019-02-03T18:26:37.542Z,6.27
2019-02-03T18:29:08.338Z,6.70
2019-02-03T18:31:39.896Z,6.97
2019-02-03T18:34:10.949Z,6.60
2019-02-03T18:36:41.394Z,5.93
2019-02-03T18:39:11.949Z,5.90
2019-02-03T18:41:42.741Z,5.63
2019-02-03T18:44:13.313Z,6.23
2019-02-03T18:46:43.841Z,6.57
2019-02-03T18:49:14.303Z,6.17
2019-02-03T18:51:45.121Z,5.33
2019-02-03T18:54:15.983Z,6.00
2019-02-03T18:56:47.122Z,6.00
2019-02-03T18:59:17.585Z,6.20
2019-02-03T19:01:48.105Z,5.40
2019-02-03T19:04:18.823Z,5.83
2019-02-03T19:06:49.629Z,5.57
2019-02-03T19:09:20.145Z,5.50
2019-02-03T19:11:51.030Z,5.20
2019-02-03T19:14:22.976Z,5.37
2019-02-03T19:16:54.466Z,4.90
2019-02-03T19:19:25.186Z,6.03
2019-02-03T19:21:55.633Z,5.63
2019-02-03T19:24:26.492Z,5.13
2019-02-03T19:26:57.640Z,5.13
2019-02-03T19:29:28.449Z,5.20
2019-02-03T19:31:58.958Z,5.27
2019-02-03T19:34:29.746Z,5.63
2019-02-03T19:37:05.554Z,5.20
2019-02-03T19:39:32.736Z,5.90
2019-02-03T19:42:03.472Z,5.33
2019-02-03T19:44:34.329Z,5.13
2019-02-03T19:47:05.417Z,5.50
2019-02-03T19:49:45.993Z,5.10
2019-02-03T19:52:08.587Z,5.47
2019-02-03T19:54:40.042Z,5.33
2019-02-03T19:57:10.634Z,5.87
2019-02-03T19:59:46.848Z,5.50
2019-02-03T20:02:13.317Z,5.93
2019-02-03T20:04:50.932Z,5.57
2019-02-03T20:07:21.744Z,5.70
2019-02-03T20:09:52.565Z,6.20
2019-02-03T20:12:24.260Z,5.60
2019-02-03T20:14:54.914Z,5.60
2019-02-03T20:17:25.861Z,5.93
2019-02-03T20:19:56.726Z,6.57
2019-02-03T20:22:27.968Z,6.17
2019-02-03T20:24:58.453Z,6.40
2019-02-03T20:27:28.956Z,6.57
2019-02-03T20:29:59.422Z,6.77
2019-02-03T20:32:29.933Z,6.03
2019-02-03T20:35:00.971Z,6.90
2019-02-03T20:37:31.915Z,6.87
2019-02-03T20:40:02.982Z,7.93
2019-02-03T20:42:33.550Z,7.90
2019-02-03T20:45:04.947Z,7.60
2019-02-03T20:47:38.092Z,8.43
2019-02-03T20:50:11.326Z,7.33
2019-02-03T20:52:42.164Z,7.13
2019-02-03T20:55:13.351Z,7.90
2019-02-03T20:57:44.292Z,6.00
2019-02-03T21:00:20.453Z,7.20
2019-02-03T21:02:51.203Z,6.20
2019-02-03T21:05:21.742Z,7.60
2019-02-03T21:07:52.665Z,6.77
2019-02-03T21:10:23.408Z,6.87
2019-02-03T21:12:54.272Z,6.83
2019-02-03T21:15:33.538Z,7.63
2019-02-03T21:17:58.361Z,7.70
2019-02-03T21:20:31.045Z,7.90
2019-02-03T21:23:02.000Z,7.37
2019-02-03T21:25:32.447Z,8.20
2019-02-03T21:28:03.023Z,7.53
2019-02-03T21:30:35.975Z,7.83
2019-02-03T21:33:07.433Z,7.73
2019-02-03T21:35:37.868Z,10.67
2019-02-03T21:38:09.988Z,7.03
2019-02-03T21:40:40.452Z,5.73
2019-02-03T21:43:11.393Z,6.53
2019-02-03T21:45:45.045Z,7.03
2019-02-03T21:48:14.362Z,5.93
2019-02-03T21:50:44.868Z,5.73
2019-02-03T21:53:15.366Z,5.67
2019-02-03T21:55:46.204Z,5.90
2019-02-03T21:58:16.702Z,5.63
2019-02-03T22:00:47.138Z,5.90
2019-02-03T22:03:17.904Z,5.70
2019-02-03T22:05:48.382Z,5.93
2019-02-03T22:08:19.584Z,5.53
2019-02-03T22:10:50.074Z,6.23
2019-02-03T22:13:20.542Z,5.80
2019-02-03T22:15:55.910Z,5.60
2019-02-03T22:18:23.328Z,5.80
2019-02-03T22:20:53.746Z,6.00
2019-02-03T22:23:24.229Z,6.17
2019-02-03T22:25:55.043Z,6.27
2019-02-03T22:28:25.487Z,6.20
2019-02-03T22:30:55.959Z,6.30
2019-02-03T22:33:26.394Z,6.07
2019-02-03T22:35:57.221Z,5.70
2019-02-03T22:38:27.657Z,6.67
2019-02-03T22:40:58.101Z,6.13
2019-02-03T22:43:29.493Z,6.50
2019-02-03T22:46:06.863Z,5.70
2019-02-03T22:48:32.114Z,6.17
2019-02-03T22:51:03.346Z,6.27
2019-02-03T22:53:34.106Z,6.53
2019-02-03T22:56:04.784Z,6.53
2019-02-03T22:58:35.648Z,6.00
2019-02-03T23:01:19.835Z,6.20
2019-02-03T23:03:59.009Z,5.77
2019-02-03T23:06:31.161Z,5.57
2019-02-03T23:09:05.360Z,6.03
2019-02-03T23:11:35.996Z,5.83
2019-02-03T23:14:06.880Z,6.23
2019-02-03T23:16:37.319Z,5.83
2019-02-03T23:19:07.785Z,5.70
2019-02-03T23:21:38.227Z,6.00
2019-02-03T23:24:09.214Z,6.00
2019-02-03T23:26:39.817Z,6.53
2019-02-03T23:29:10.527Z,6.47
2019-02-03T23:31:41.341Z,6.30
2019-02-03T23:34:12.062Z,6.03
2019-02-03T23:36:42.895Z,5.87
2019-02-03T23:39:14.407Z,6.03
2019-02-03T23:41:45.007Z,6.57
2019-02-03T23:44:15.529Z,6.23
2019-02-03T23:46:46.342Z,6.50
2019-02-03T23:49:17.906Z,6.17
2019-02-03T23:51:48.340Z,6.43
2019-02-03T23:54:18.786Z,6.43
2019-02-03T23:56:49.610Z,6.80
2019-02-03T23:59:20.432Z,6.93
